createdAt,value
2019-01-31T00:24:06.711Z,96213.08
2019-01-31T00:26:43.731Z,96218.34
2019-01-31T00:29:29.973Z,96215.27
2019-01-31T00:32:03.894Z,96222.55
2019-01-31T00:34:35.356Z,96217.77
2019-01-31T00:37:18.874Z,96208.66
2019-01-31T00:39:52.783Z,96221.41
2019-01-31T00:42:33.372Z,96210.07
2019-01-31T00:45:22.760Z,96208.14
2019-01-31T00:48:06.061Z,96209.50
2019-01-31T00:50:40.077Z,96199.61
2019-01-31T00:53:23.546Z,96195.55
2019-01-31T00:56:11.830Z,96195.98
2019-01-31T00:58:46.061Z,96187.32
2019-01-31T01:01:29.402Z,96186.88
2019-01-31T01:04:03.632Z,96186.90
2019-01-31T01:06:57.404Z,96182.84
2019-01-31T01:09:51.435Z,96185.06
2019-01-31T01:12:28.850Z,96188.38
2019-01-31T01:15:00.533Z,96187.73
2019-01-31T01:17:37.870Z,96185.73
2019-01-31T01:20:24.621Z,96188.95
2019-01-31T01:23:17.552Z,96189.81
2019-01-31T01:26:10.253Z,96186.75
2019-01-31T01:28:53.521Z,96186.75
2019-01-31T01:31:49.127Z,96184.53
2019-01-31T01:34:23.154Z,96182.70
2019-01-31T01:36:57.738Z,96182.58
2019-01-31T01:39:29.200Z,96173.22
2019-01-31T01:42:05.940Z,96174.09
2019-01-31T01:44:56.488Z,96173.70
2019-01-31T01:47:30.928Z,96173.23
2019-01-31T01:50:02.402Z,96181.34
2019-01-31T01:52:48.977Z,96174.45
2019-01-31T01:55:23.503Z,96176.41
2019-01-31T01:58:28.845Z,96189.95
2019-01-31T02:01:15.322Z,96196.27
2019-01-31T02:04:07.910Z,96177.34
2019-01-31T02:06:48.869Z,96186.12
2019-01-31T02:09:29.973Z,96178.70
2019-01-31T02:12:11.230Z,96180.16
2019-01-31T02:15:01.854Z,96178.30
2019-01-31T02:17:48.282Z,96180.70
2019-01-31T02:20:22.474Z,96170.21
2019-01-31T02:23:06.279Z,96169.70
2019-01-31T02:25:46.404Z,96165.43
2019-01-31T02:28:30.013Z,96156.05
2019-01-31T02:31:19.401Z,96153.08
2019-01-31T02:33:56.687Z,96147.73
2019-01-31T02:36:46.005Z,96155.78
2019-01-31T02:39:43.164Z,96149.33
2019-01-31T02:42:09.176Z,96147.00
2019-01-31T02:45:06.359Z,96150.89
2019-01-31T02:47:46.945Z,96144.95
2019-01-31T02:50:42.642Z,96147.00
2019-01-31T02:53:28.997Z,96141.08
2019-01-31T02:56:09.213Z,96135.68
2019-01-31T02:58:43.344Z,96131.52
2019-01-31T03:01:26.744Z,96129.02
2019-01-31T03:04:10.243Z,96124.97
2019-01-31T03:06:44.578Z,96118.81
2019-01-31T03:09:54.324Z,96116.56
2019-01-31T03:12:28.214Z,96117.38
2019-01-31T03:14:59.653Z,96101.70
2019-01-31T03:18:04.358Z,96102.92
2019-01-31T03:20:48.044Z,96103.08
2019-01-31T03:23:45.302Z,96096.63
2019-01-31T03:26:25.601Z,96088.81
2019-01-31T03:29:12.252Z,96085.60
2019-01-31T03:31:55.918Z,96086.41
2019-01-31T03:34:36.106Z,96084.67
2019-01-31T03:37:19.590Z,96087.38
2019-01-31T03:39:51.046Z,96084.28
2019-01-31T03:42:37.395Z,96093.25
2019-01-31T03:45:31.228Z,96101.48
2019-01-31T03:48:11.800Z,96098.59
2019-01-31T03:51:00.332Z,96090.27
2019-01-31T03:53:34.755Z,96097.53
2019-01-31T03:56:11.980Z,96102.15
2019-01-31T03:58:43.426Z,96100.36
2019-01-31T04:01:30.100Z,96094.23
2019-01-31T04:04:01.568Z,96094.32
2019-01-31T04:06:30.036Z,96092.45
2019-01-31T04:08:58.441Z,96093.13
2019-01-31T04:11:26.839Z,96093.54
2019-01-31T04:13:55.573Z,96094.32
2019-01-31T04:16:23.966Z,96081.56
2019-01-31T04:18:52.636Z,96078.45
2019-01-31T04:21:21.267Z,96085.27
2019-01-31T04:23:50.012Z,96084.27
2019-01-31T04:26:18.698Z,96075.95
2019-01-31T04:28:47.089Z,96080.87
2019-01-31T04:31:15.490Z,96085.09
2019-01-31T04:33:44.157Z,96081.87
2019-01-31T04:36:12.825Z,96076.91
2019-01-31T04:38:41.219Z,96074.09
2019-01-31T04:41:09.901Z,96078.75
2019-01-31T04:43:38.282Z,96078.52
2019-01-31T04:46:06.672Z,96075.95
2019-01-31T04:48:35.201Z,96077.00
2019-01-31T04:51:03.813Z,96073.79
2019-01-31T04:53:32.501Z,96073.77
2019-01-31T04:56:00.889Z,96078.45
2019-01-31T04:58:29.283Z,96075.84
2019-01-31T05:00:57.831Z,96080.92
2019-01-31T05:03:26.476Z,96079.87
2019-01-31T05:05:54.867Z,96082.78
2019-01-31T05:08:23.358Z,96076.14
2019-01-31T05:10:51.733Z,96075.61
2019-01-31T05:13:20.367Z,96074.67
2019-01-31T05:15:48.766Z,96075.98
2019-01-31T05:18:17.154Z,96072.71
2019-01-31T05:20:45.559Z,96074.06
2019-01-31T05:23:13.953Z,96068.77
2019-01-31T05:25:42.358Z,96070.39
2019-01-31T05:28:10.748Z,96074.17
2019-01-31T05:30:39.227Z,96063.88
2019-01-31T05:33:07.621Z,96068.28
2019-01-31T05:35:36.266Z,96066.58
2019-01-31T05:38:04.676Z,96062.02
2019-01-31T05:40:33.075Z,96054.54
2019-01-31T05:43:05.935Z,96060.45
2019-01-31T05:45:34.968Z,96057.99
2019-01-31T05:48:03.446Z,96059.34
2019-01-31T05:50:31.836Z,96056.34
2019-01-31T05:53:00.227Z,96060.09
2019-01-31T05:55:28.630Z,96062.95
2019-01-31T05:57:57.317Z,96061.20
2019-01-31T06:00:30.412Z,96071.36
2019-01-31T06:02:58.802Z,96067.96
2019-01-31T06:05:27.212Z,96064.96
2019-01-31T06:07:55.598Z,96070.50
2019-01-31T06:10:24.009Z,96067.11
2019-01-31T06:12:52.397Z,96069.98
2019-01-31T06:15:20.854Z,96073.16
2019-01-31T06:17:50.154Z,96075.05
2019-01-31T06:20:24.309Z,96084.75
2019-01-31T06:22:52.713Z,96082.48
2019-01-31T06:25:21.177Z,96082.62
2019-01-31T06:27:49.716Z,96080.05
2019-01-31T06:30:18.775Z,96085.94
2019-01-31T06:32:47.513Z,96086.84
2019-01-31T06:35:16.021Z,96087.94
2019-01-31T06:37:44.680Z,96084.11
2019-01-31T06:40:19.064Z,96094.49
2019-01-31T06:42:47.763Z,96093.92
2019-01-31T06:45:18.211Z,96098.45
2019-01-31T06:47:46.598Z,96102.75
2019-01-31T06:50:15.381Z,96104.91
2019-01-31T06:52:44.010Z,96101.27
2019-01-31T06:55:13.574Z,96100.98
2019-01-31T06:57:42.208Z,96103.93
2019-01-31T07:00:13.982Z,96111.23
2019-01-31T07:02:42.384Z,96110.05
2019-01-31T07:05:10.832Z,96112.89
2019-01-31T07:07:39.230Z,96112.28
2019-01-31T07:10:16.856Z,96117.36
2019-01-31T07:12:45.256Z,96121.21
2019-01-31T07:15:13.981Z,96123.81
2019-01-31T07:17:42.452Z,96128.34
2019-01-31T07:20:13.577Z,96135.45
2019-01-31T07:22:41.986Z,96142.69
2019-01-31T07:25:13.785Z,96144.30
2019-01-31T07:27:42.176Z,96142.34
2019-01-31T07:30:13.654Z,96139.89
2019-01-31T07:32:42.305Z,96141.58
2019-01-31T07:35:13.251Z,96147.75
2019-01-31T07:37:42.031Z,96145.45
2019-01-31T07:40:13.370Z,96145.80
2019-01-31T07:42:41.771Z,96150.21
2019-01-31T07:45:16.374Z,96146.80
2019-01-31T07:47:44.764Z,96145.30
2019-01-31T07:50:16.409Z,96153.03
2019-01-31T07:52:44.799Z,96154.69
2019-01-31T07:55:13.605Z,96146.87
2019-01-31T07:57:42.218Z,96156.14
2019-01-31T08:00:19.159Z,96146.00
2019-01-31T08:02:47.552Z,96154.22
2019-01-31T08:05:21.443Z,96150.66
2019-01-31T08:07:51.218Z,96163.66
2019-01-31T08:10:28.076Z,96155.07
2019-01-31T08:12:56.605Z,96157.73
2019-01-31T08:15:25.076Z,96161.22
2019-01-31T08:17:53.534Z,96158.20
2019-01-31T08:20:21.930Z,96168.06
2019-01-31T08:22:50.387Z,96169.12
2019-01-31T08:25:21.125Z,96165.02
2019-01-31T08:27:50.793Z,96169.23
2019-01-31T08:30:21.868Z,96169.08
2019-01-31T08:32:50.492Z,96164.78
2019-01-31T08:35:19.042Z,96168.68
2019-01-31T08:37:47.436Z,96172.28
2019-01-31T08:40:16.140Z,96172.19
2019-01-31T08:42:44.825Z,96172.94
2019-01-31T08:45:14.655Z,96173.88
2019-01-31T08:47:43.136Z,96172.80
2019-01-31T08:50:16.788Z,96171.09
2019-01-31T08:52:45.243Z,96174.36
2019-01-31T08:55:14.030Z,96180.63
2019-01-31T08:57:42.980Z,96171.49
2019-01-31T09:00:23.852Z,96169.19
2019-01-31T09:02:52.241Z,96168.06
2019-01-31T09:05:20.702Z,96169.08
2019-01-31T09:07:49.173Z,96167.03
2019-01-31T09:10:29.147Z,96158.75
2019-01-31T09:12:58.493Z,96168.19
2019-01-31T09:15:27.157Z,96165.55
2019-01-31T09:17:56.018Z,96168.14
2019-01-31T09:20:39.703Z,96172.11
2019-01-31T09:23:29.454Z,96168.49
2019-01-31T09:26:17.628Z,96164.92
2019-01-31T09:28:49.070Z,96176.59
2019-01-31T09:31:29.511Z,96181.39
2019-01-31T09:34:03.815Z,96177.89
2019-01-31T09:36:41.305Z,96169.22
2019-01-31T09:39:33.844Z,96173.92
2019-01-31T09:42:10.558Z,96169.41
2019-01-31T09:45:01.530Z,96177.27
2019-01-31T09:47:38.991Z,96175.96
2019-01-31T09:50:16.341Z,96174.79
2019-01-31T09:53:12.341Z,96184.60
2019-01-31T09:56:07.628Z,96187.78
2019-01-31T09:58:56.642Z,96185.36
2019-01-31T10:01:44.857Z,96187.70
2019-01-31T10:04:19.116Z,96189.44
2019-01-31T10:07:23.901Z,96186.20
2019-01-31T10:10:20.767Z,96186.11
2019-01-31T10:13:11.996Z,96185.55
2019-01-31T10:15:46.171Z,96176.02
2019-01-31T10:18:29.473Z,96176.05
2019-01-31T10:21:16.230Z,96169.38
2019-01-31T10:24:14.893Z,96174.87
2019-01-31T10:26:49.347Z,96171.65
2019-01-31T10:29:54.084Z,96165.16
2019-01-31T10:32:27.451Z,96162.92
2019-01-31T10:35:08.018Z,96158.94
2019-01-31T10:37:48.605Z,96163.71
2019-01-31T10:40:31.780Z,96154.03
2019-01-31T10:43:12.476Z,96149.37
2019-01-31T10:45:50.068Z,96144.75
2019-01-31T10:48:33.802Z,96136.56
2019-01-31T10:51:26.186Z,96138.98
2019-01-31T10:54:12.864Z,96130.02
2019-01-31T10:56:50.136Z,96133.06
2019-01-31T10:59:38.029Z,96135.55
2019-01-31T11:02:29.044Z,96128.86
2019-01-31T11:05:24.719Z,96127.36
2019-01-31T11:08:07.980Z,96122.45
2019-01-31T11:10:42.457Z,96123.31
2019-01-31T11:13:13.903Z,96119.18
2019-01-31T11:15:45.346Z,96112.62
2019-01-31T11:18:34.323Z,96113.02
2019-01-31T11:21:21.979Z,96109.11
2019-01-31T11:23:53.414Z,96109.35
2019-01-31T11:26:45.917Z,96103.04
2019-01-31T11:29:17.357Z,96105.33
2019-01-31T11:31:51.580Z,96102.88
2019-01-31T11:34:35.285Z,96096.85
2019-01-31T11:37:09.555Z,96096.84
2019-01-31T11:39:52.883Z,96088.17
2019-01-31T11:42:26.755Z,96081.27
2019-01-31T11:45:19.329Z,96077.22
2019-01-31T11:48:13.468Z,96082.81
2019-01-31T11:50:50.832Z,96080.05
2019-01-31T11:53:37.323Z,96068.75
2019-01-31T11:56:42.363Z,96068.59
2019-01-31T11:59:10.765Z,96072.86
2019-01-31T12:01:39.543Z,96070.77
2019-01-31T12:04:08.833Z,96067.36
2019-01-31T12:06:37.619Z,96068.27
2019-01-31T12:09:09.059Z,96064.51
2019-01-31T12:11:37.447Z,96066.53
2019-01-31T12:14:06.402Z,96058.16
2019-01-31T12:16:34.794Z,96052.55
2019-01-31T12:19:03.503Z,96057.38
2019-01-31T12:21:31.974Z,96048.69
2019-01-31T12:24:00.478Z,96044.08
2019-01-31T12:26:28.820Z,96041.77
2019-01-31T12:28:57.220Z,96044.20
2019-01-31T12:31:25.595Z,96036.73
2019-01-31T12:33:53.999Z,96041.41
2019-01-31T12:36:22.380Z,96038.20
2019-01-31T12:38:51.149Z,96030.44
2019-01-31T12:41:19.540Z,96035.21
2019-01-31T12:43:47.924Z,96033.45
2019-01-31T12:46:17.105Z,96031.00
2019-01-31T12:48:45.482Z,96033.12
2019-01-31T12:51:14.020Z,96034.96
2019-01-31T12:53:42.404Z,96026.45
2019-01-31T12:56:11.340Z,96031.64
2019-01-31T12:58:39.737Z,96026.98
2019-01-31T13:01:08.356Z,96023.07
2019-01-31T13:03:37.089Z,96031.39
2019-01-31T13:06:05.607Z,96032.38
2019-01-31T13:08:34.000Z,96017.30
2019-01-31T13:11:02.394Z,96015.97
2019-01-31T13:13:30.775Z,96018.14
2019-01-31T13:15:59.545Z,96008.38
2019-01-31T13:18:28.233Z,96002.62
2019-01-31T13:20:56.861Z,96003.30
2019-01-31T13:23:25.366Z,95999.25
2019-01-31T13:25:54.093Z,96003.95
2019-01-31T13:28:22.483Z,95996.16
2019-01-31T13:30:50.870Z,95994.49
2019-01-31T13:33:59.171Z,95991.30
2019-01-31T13:36:27.632Z,95990.84
2019-01-31T13:38:56.414Z,95984.24
2019-01-31T13:41:24.869Z,95975.88
2019-01-31T13:43:57.714Z,95977.11
2019-01-31T13:46:24.123Z,95985.69
2019-01-31T13:48:52.510Z,95983.55
2019-01-31T13:51:20.971Z,95982.98
2019-01-31T13:53:49.761Z,95994.03
2019-01-31T13:56:18.143Z,95987.48
2019-01-31T13:58:46.550Z,95986.52
2019-01-31T14:01:14.928Z,95986.27
2019-01-31T14:03:43.595Z,95981.07
2019-01-31T14:06:12.276Z,95981.48
2019-01-31T14:08:40.963Z,95982.25
2019-01-31T14:11:09.357Z,95980.12
2019-01-31T14:13:38.030Z,95978.55
2019-01-31T14:16:06.580Z,95981.37
2019-01-31T14:18:34.960Z,95973.52
2019-01-31T14:21:03.393Z,95983.92
2019-01-31T14:23:31.792Z,95979.14
2019-01-31T14:26:00.433Z,95978.05
2019-01-31T14:28:29.134Z,95983.41
2019-01-31T14:30:57.523Z,95971.94
2019-01-31T14:36:15.059Z,95978.32
2019-01-31T14:38:43.530Z,95974.20
2019-01-31T14:41:12.312Z,95973.42
2019-01-31T14:43:40.960Z,95966.53
2019-01-31T14:46:09.620Z,95969.69
2019-01-31T14:48:38.307Z,95962.09
2019-01-31T14:51:06.757Z,95960.50
2019-01-31T14:53:35.155Z,95961.91
2019-01-31T14:56:03.612Z,95960.43
2019-01-31T14:58:32.322Z,95960.91
2019-01-31T15:01:00.762Z,95959.28
2019-01-31T15:03:29.170Z,95959.97
2019-01-31T15:05:57.583Z,95965.17
2019-01-31T15:08:26.034Z,95959.58
2019-01-31T15:10:54.525Z,95956.94
2019-01-31T15:13:22.899Z,95955.88
2019-01-31T15:15:51.373Z,95950.50
2019-01-31T15:18:19.763Z,95954.47
2019-01-31T15:20:48.153Z,95954.85
2019-01-31T15:23:16.925Z,95957.66
2019-01-31T15:25:45.550Z,95961.75
2019-01-31T15:28:14.295Z,95946.80
2019-01-31T15:30:42.690Z,95948.66
2019-01-31T15:33:12.424Z,95953.13
2019-01-31T15:35:41.260Z,95952.55
2019-01-31T15:38:09.714Z,95955.33
2019-01-31T15:40:41.424Z,95952.48
2019-01-31T15:43:09.881Z,95954.24
2019-01-31T15:45:38.349Z,95955.72
2019-01-31T15:48:10.546Z,95954.96
2019-01-31T15:50:38.762Z,95948.34
2019-01-31T15:53:07.611Z,95951.61
2019-01-31T15:55:36.070Z,95951.64
2019-01-31T15:58:05.608Z,95946.47
2019-01-31T16:00:41.746Z,95942.97
2019-01-31T16:03:12.188Z,95939.77
2019-01-31T16:05:40.974Z,95937.12
2019-01-31T16:08:10.434Z,95935.55
2019-01-31T16:10:38.969Z,95937.31
2019-01-31T16:13:08.283Z,95934.92
2019-01-31T16:15:36.810Z,95936.42
2019-01-31T16:18:07.475Z,95924.88
2019-01-31T16:20:35.866Z,95927.75
2019-01-31T16:23:04.813Z,95926.73
2019-01-31T16:25:33.269Z,95931.87
2019-01-31T16:28:01.667Z,95931.63
2019-01-31T16:30:30.053Z,95930.84
2019-01-31T16:32:58.434Z,95932.27
2019-01-31T16:35:26.832Z,95930.11
2019-01-31T16:37:55.555Z,95927.56
2019-01-31T16:40:24.721Z,95920.61
2019-01-31T16:42:53.183Z,95921.94
2019-01-31T16:45:22.097Z,95918.35
2019-01-31T16:47:50.618Z,95913.88
2019-01-31T16:50:23.524Z,95906.59
2019-01-31T16:52:51.982Z,95903.30
2019-01-31T16:55:26.340Z,95902.97
2019-01-31T16:57:56.066Z,95898.25
2019-01-31T17:00:32.875Z,95887.03
2019-01-31T17:03:01.255Z,95890.13
2019-01-31T17:05:31.878Z,95880.80
2019-01-31T17:08:00.956Z,95873.10
2019-01-31T17:10:29.755Z,95867.52
2019-01-31T17:12:58.292Z,95879.80
2019-01-31T17:15:27.245Z,95888.39
2019-01-31T17:17:55.763Z,95888.87
2019-01-31T17:20:38.294Z,95885.50
2019-01-31T17:23:06.766Z,95884.41
2019-01-31T17:25:35.480Z,95881.38
2019-01-31T17:28:04.881Z,95881.27
2019-01-31T17:30:33.568Z,95874.80
2019-01-31T17:33:01.970Z,95866.44
2019-01-31T17:35:30.364Z,95870.80
2019-01-31T17:37:58.755Z,95878.45
2019-01-31T17:40:29.707Z,95884.80
2019-01-31T17:42:58.098Z,95885.52
2019-01-31T17:45:30.515Z,95883.77
2019-01-31T17:47:56.842Z,95883.33
2019-01-31T17:50:25.537Z,95882.45
2019-01-31T17:52:54.090Z,95870.64
2019-01-31T17:55:24.511Z,95871.24
2019-01-31T17:57:52.954Z,95869.66
2019-01-31T18:00:31.830Z,95880.41
2019-01-31T18:03:00.234Z,95878.19
2019-01-31T18:05:28.616Z,95873.66
2019-01-31T18:07:57.005Z,95878.28
2019-01-31T18:10:25.754Z,95879.27
2019-01-31T18:12:54.141Z,95878.28
2019-01-31T18:15:22.930Z,95875.66
2019-01-31T18:17:51.557Z,95878.00
2019-01-31T18:20:21.797Z,95872.03
2019-01-31T18:22:50.269Z,95859.02
2019-01-31T18:25:18.659Z,95844.70
2019-01-31T18:27:47.043Z,95844.86
2019-01-31T18:30:33.368Z,95842.90
2019-01-31T18:33:02.052Z,95846.55
2019-01-31T18:35:30.805Z,95846.17
2019-01-31T18:37:59.535Z,95844.74
2019-01-31T18:40:30.441Z,95837.92
2019-01-31T18:42:59.148Z,95817.94
2019-01-31T18:45:29.672Z,95804.70
2019-01-31T18:47:58.318Z,95799.82
2019-01-31T18:50:29.920Z,95792.98
2019-01-31T18:52:58.813Z,95785.87
2019-01-31T18:55:28.035Z,95782.12
2019-01-31T18:57:56.678Z,95781.34
2019-01-31T19:00:30.545Z,95773.81
2019-01-31T19:02:58.951Z,95774.30
2019-01-31T19:05:28.090Z,95770.71
2019-01-31T19:07:56.479Z,95777.66
2019-01-31T19:10:25.052Z,95776.22
2019-01-31T19:12:53.935Z,95767.06
2019-01-31T19:15:24.355Z,95757.39
2019-01-31T19:17:53.042Z,95760.59
2019-01-31T19:20:32.394Z,95750.93
2019-01-31T19:23:02.834Z,95741.02
2019-01-31T19:25:32.322Z,95746.91
2019-01-31T19:28:01.028Z,95735.67
2019-01-31T19:30:34.697Z,95731.92
2019-01-31T19:33:03.806Z,95733.11
2019-01-31T19:35:32.273Z,95731.12
2019-01-31T19:38:02.416Z,95727.44
2019-01-31T19:40:36.477Z,95725.76
2019-01-31T19:43:05.808Z,95723.67
2019-01-31T19:45:39.820Z,95722.49
2019-01-31T19:48:08.857Z,95709.70
2019-01-31T19:50:37.699Z,95700.75
2019-01-31T19:53:06.711Z,95710.08
2019-01-31T19:55:35.705Z,95708.90
2019-01-31T19:58:04.897Z,95702.58
2019-01-31T20:00:33.584Z,95695.69
2019-01-31T20:03:02.353Z,95693.52
2019-01-31T20:05:30.894Z,95708.47
2019-01-31T20:08:01.375Z,95703.77
2019-01-31T20:10:31.758Z,95702.88
2019-01-31T20:13:00.626Z,95710.00
2019-01-31T20:15:30.206Z,95707.25
2019-01-31T20:17:58.933Z,95707.88
2019-01-31T20:20:30.590Z,95706.03
2019-01-31T20:22:59.852Z,95708.50
2019-01-31T20:25:30.179Z,95704.49
2019-01-31T20:27:59.399Z,95708.42
2019-01-31T20:30:33.260Z,95704.61
2019-01-31T20:33:02.545Z,95704.94
2019-01-31T20:35:31.771Z,95707.62
2019-01-31T20:38:01.071Z,95706.30
2019-01-31T20:40:32.533Z,95697.41
2019-01-31T20:43:00.933Z,95696.39
2019-01-31T20:45:29.540Z,95693.26
2019-01-31T20:47:58.013Z,95700.39
2019-01-31T20:51:06.580Z,95698.55
2019-01-31T20:53:35.296Z,95708.61
2019-01-31T20:56:03.745Z,95714.45
2019-01-31T20:58:32.143Z,95707.44
2019-01-31T21:01:00.544Z,95703.91
2019-01-31T21:03:49.606Z,95701.88
2019-01-31T21:06:18.643Z,95693.99
2019-01-31T21:08:47.824Z,95691.65
2019-01-31T21:11:36.840Z,95685.19
2019-01-31T21:14:45.343Z,95683.57
2019-01-31T21:17:16.726Z,95692.64
2019-01-31T21:22:33.175Z,95667.39
2019-01-31T21:25:01.577Z,95659.05
2019-01-31T21:27:29.971Z,95654.43
2019-01-31T21:29:58.366Z,95643.36
2019-01-31T21:32:27.063Z,95645.11
2019-01-31T21:34:55.693Z,95639.16
2019-01-31T21:37:24.096Z,95635.02
2019-01-31T21:39:52.553Z,95626.98
2019-01-31T21:42:21.299Z,95627.87
2019-01-31T21:44:49.985Z,95623.18
2019-01-31T21:47:18.380Z,95617.52
2019-01-31T21:49:46.778Z,95613.25
2019-01-31T21:52:15.426Z,95608.06
2019-01-31T21:54:43.830Z,95600.55
2019-01-31T21:57:12.289Z,95608.38
2019-01-31T21:59:40.687Z,95604.63
2019-01-31T22:02:09.080Z,95603.41
2019-01-31T22:04:37.486Z,95602.30
2019-01-31T22:07:05.875Z,95602.04
2019-01-31T22:09:53.620Z,95605.10
2019-01-31T22:12:22.011Z,95601.72
2019-01-31T22:14:50.634Z,95596.39
2019-01-31T22:17:19.280Z,95592.88
2019-01-31T22:19:47.663Z,95592.11
2019-01-31T22:22:35.649Z,95586.67
2019-01-31T22:25:43.958Z,95580.13
2019-01-31T22:28:12.351Z,95581.41
2019-01-31T22:30:40.741Z,95570.58
2019-01-31T22:33:09.203Z,95559.66
2019-01-31T22:35:37.593Z,95559.97
2019-01-31T22:38:45.904Z,95562.34
2019-01-31T22:41:14.299Z,95557.84
2019-01-31T22:43:43.012Z,95560.86
2019-01-31T22:46:11.404Z,95552.48
2019-01-31T22:48:40.040Z,95556.35
2019-01-31T22:51:08.763Z,95550.02
2019-01-31T22:53:37.452Z,95538.25
2019-01-31T22:56:05.903Z,95539.64
2019-01-31T22:58:34.631Z,95542.66
2019-01-31T23:01:42.942Z,95537.61
2019-01-31T23:04:11.618Z,95531.48
2019-01-31T23:06:40.058Z,95521.50
2019-01-31T23:09:48.369Z,95500.39
2019-01-31T23:12:16.755Z,95496.22
2019-01-31T23:14:45.141Z,95490.47
2019-01-31T23:17:13.544Z,95500.88
2019-01-31T23:19:41.938Z,95495.78
2019-01-31T23:22:10.336Z,95495.07
2019-01-31T23:24:38.992Z,95498.59
2019-01-31T23:27:07.693Z,95494.77
2019-01-31T23:29:36.070Z,95491.83
2019-01-31T23:32:44.639Z,95481.63
2019-01-31T23:35:13.103Z,95480.70
2019-01-31T23:37:41.748Z,95474.21
2019-01-31T23:40:50.065Z,95472.48
2019-01-31T23:43:18.742Z,95476.03
2019-01-31T23:45:47.135Z,95474.55
2019-01-31T23:48:15.528Z,95475.97
2019-01-31T23:50:43.931Z,95464.63
2019-01-31T23:53:12.322Z,95467.88
2019-01-31T23:55:40.800Z,95462.44
2019-01-31T23:58:09.465Z,95465.77
